CheckWX is a tool to help pilots better visualize weather data.  It is not intended as a substitute for an official pre-flight weather briefing.

02:53:03 UTC

ENRA METAR
Mo i Rana , Røssvoll Airport
Mo i Rana, Norway
Current

12 hours ago

ENRA 231520Z 28013G23KT 240V340 5000 -SHSNRA VV018 02/M01 Q0985
Observed
Mar-23 @ 15:20 UTC
Wind
  • 280° at 13 KTS
  • Gusting to 23 KTS
Visibility
5,005 meters
Flight Rules
LIFR
Conditions
Light Snow, Light Rain
Cloud Levels
  • Vertical visibility at 1,800' AGL
Temperature
C / 36°F
Dewpoint
-1°C / 30°F
Humidity
81%
Altimeter
29.08" Hg
Pressure
984.92 hPa
Previous

12 hours ago

ENRA 231450Z 25011G21KT 180V310 9999 5000NW -SHSNRA SCT010 SCT018CB BKN023 03/M01 Q0985
Observed
Mar-23 @ 14:50 UTC
Wind
  • 250° at 11 KTS
  • Gusting to 21 KTS
Visibility
10,000+ meters
Flight Rules
MVFR
Conditions
Light Snow, Rain
Cloud Levels
  • Scattered at 1,000' AGL
  • Scattered at 1,800' AGL
  • Broken at 2,300' AGL
Temperature
C / 37°F
Dewpoint
-1°C / 30°F
Humidity
75%
Altimeter
29.08" Hg
Pressure
984.92 hPa
Previous

13 hours ago

ENRA 231420Z VRB09G20KT 5000 VV015 02/M00 Q0986
Observed
Mar-23 @ 14:20 UTC
Wind
  • Variable at 9 KTS
  • Gusting to 20 KTS
Visibility
5,005 meters
Flight Rules
LIFR
Cloud Levels
  • Vertical visibility at 1,500' AGL
Temperature
C / 36°F
Dewpoint
C / 32°F
Humidity
87%
Altimeter
29.11" Hg
Pressure
985.92 hPa